sensor_id;sensor_type;location;lat;lon;timestamp;pressure;altitude;pressure_sealevel;temperature;humidity
15604;BME280;7902;49.042;9.092;2023-01-01T00:00:10;99280.00;;;16.97;58.39
15604;BME280;7902;49.042;9.092;2023-01-01T00:02:36;99271.09;;;16.98;58.03
15604;BME280;7902;49.042;9.092;2023-01-01T00:05:03;99280.06;;;16.88;58.64
15604;BME280;7902;49.042;9.092;2023-01-01T00:07:29;99270.69;;;16.93;58.06
15604;BME280;7902;49.042;9.092;2023-01-01T00:09:55;99273.91;;;16.87;58.34
15604;BME280;7902;49.042;9.092;2023-01-01T00:12:39;99274.19;;;16.94;58.14
15604;BME280;7902;49.042;9.092;2023-01-01T00:15:06;99267.63;;;16.88;58.26
15604;BME280;7902;49.042;9.092;2023-01-01T00:17:32;99268.22;;;17.09;57.84
15604;BME280;7902;49.042;9.092;2023-01-01T00:19:58;99274.13;;;17.03;57.92
15604;BME280;7902;49.042;9.092;2023-01-01T00:22:24;99273.28;;;17.03;57.71
15604;BME280;7902;49.042;9.092;2023-01-01T00:24:51;99268.50;;;17.06;57.70
15604;BME280;7902;49.042;9.092;2023-01-01T00:27:17;99270.63;;;17.03;57.76
15604;BME280;7902;49.042;9.092;2023-01-01T00:29:43;99270.72;;;17.11;57.52
15604;BME280;7902;49.042;9.092;2023-01-01T00:32:09;99265.34;;;17.03;58.05
15604;BME280;7902;49.042;9.092;2023-01-01T00:34:37;99265.91;;;16.97;57.98
15604;BME280;7902;49.042;9.092;2023-01-01T00:37:03;99273.88;;;16.97;57.81
15604;BME280;7902;49.042;9.092;2023-01-01T00:39:28;99274.75;;;16.88;57.95
15604;BME280;7902;49.042;9.092;2023-01-01T00:41:54;99281.81;;;16.97;57.97
15604;BME280;7902;49.042;9.092;2023-01-01T00:44:20;99275.84;;;16.95;57.86
15604;BME280;7902;49.042;9.092;2023-01-01T00:46:46;99286.69;;;17.01;57.61
15604;BME280;7902;49.042;9.092;2023-01-01T00:49:12;99284.22;;;16.90;57.81
15604;BME280;7902;49.042;9.092;2023-01-01T00:51:38;99283.25;;;16.91;57.48
15604;BME280;7902;49.042;9.092;2023-01-01T00:54:04;99282.34;;;16.73;57.96
15604;BME280;7902;49.042;9.092;2023-01-01T00:56:30;99284.28;;;16.81;57.96
15604;BME280;7902;49.042;9.092;2023-01-01T00:58:56;99288.00;;;16.88;58.29
15604;BME280;7902;49.042;9.092;2023-01-01T01:01:22;99294.81;;;16.90;57.88
15604;BME280;7902;49.042;9.092;2023-01-01T01:03:48;99289.53;;;16.90;57.63
15604;BME280;7902;49.042;9.092;2023-01-01T01:06:15;99286.19;;;16.88;57.51
15604;BME280;7902;49.042;9.092;2023-01-01T01:08:44;99283.19;;;16.74;58.17
15604;BME280;7902;49.042;9.092;2023-01-01T01:11:14;99277.28;;;16.89;58.08
15604;BME280;7902;49.042;9.092;2023-01-01T01:13:42;99266.97;;;16.77;58.00
15604;BME280;7902;49.042;9.092;2023-01-01T01:16:16;99276.56;;;16.87;57.45
15604;BME280;7902;49.042;9.092;2023-01-01T01:18:43;99283.47;;;16.80;57.53
15604;BME280;7902;49.042;9.092;2023-01-01T01:21:10;99282.56;;;16.89;57.69
15604;BME280;7902;49.042;9.092;2023-01-01T01:23:36;99280.09;;;16.78;57.54
15604;BME280;7902;49.042;9.092;2023-01-01T01:26:20;99285.81;;;16.83;57.97
15604;BME280;7902;49.042;9.092;2023-01-01T01:28:46;99279.94;;;16.89;57.84
15604;BME280;7902;49.042;9.092;2023-01-01T01:31:12;99273.34;;;16.93;57.55
15604;BME280;7902;49.042;9.092;2023-01-01T01:33:38;99282.56;;;16.89;57.83
15604;BME280;7902;49.042;9.092;2023-01-01T01:36:05;99287.44;;;16.94;57.41
15604;BME280;7902;49.042;9.092;2023-01-01T01:38:31;99293.06;;;16.81;57.67
15604;BME280;7902;49.042;9.092;2023-01-01T01:40:57;99285.63;;;16.94;57.65
15604;BME280;7902;49.042;9.092;2023-01-01T01:46:03;99295.66;;;16.91;57.53
15604;BME280;7902;49.042;9.092;2023-01-01T01:48:38;99293.28;;;16.97;57.25
15604;BME280;7902;49.042;9.092;2023-01-01T01:51:05;99289.13;;;16.95;57.03
15604;BME280;7902;49.042;9.092;2023-01-01T01:53:34;99290.94;;;16.94;57.34
15604;BME280;7902;49.042;9.092;2023-01-01T01:56:07;99292.03;;;16.92;57.42
15604;BME280;7902;49.042;9.092;2023-01-01T01:58:35;99297.22;;;16.93;57.41
15604;BME280;7902;49.042;9.092;2023-01-01T02:01:01;99301.53;;;16.94;57.31
15604;BME280;7902;49.042;9.092;2023-01-01T02:03:39;99302.78;;;16.90;57.44
15604;BME280;7902;49.042;9.092;2023-01-01T02:06:08;99294.81;;;16.90;57.18
15604;BME280;7902;49.042;9.092;2023-01-01T02:08:35;99307.91;;;17.01;57.14
15604;BME280;7902;49.042;9.092;2023-01-01T02:11:01;99310.50;;;16.84;57.18
15604;BME280;7902;49.042;9.092;2023-01-01T02:13:27;99321.72;;;16.68;57.57
15604;BME280;7902;49.042;9.092;2023-01-01T02:15:59;99321.56;;;16.79;57.65
15604;BME280;7902;49.042;9.092;2023-01-01T02:18:37;99316.56;;;16.76;57.35
15604;BME280;7902;49.042;9.092;2023-01-01T02:21:06;99321.16;;;16.74;57.70
15604;BME280;7902;49.042;9.092;2023-01-01T02:26:34;99312.91;;;16.77;57.84
15604;BME280;7902;49.042;9.092;2023-01-01T02:32:02;99311.25;;;16.76;57.43
15604;BME280;7902;49.042;9.092;2023-01-01T02:34:37;99309.94;;;16.90;57.10
15604;BME280;7902;49.042;9.092;2023-01-01T02:37:06;99331.28;;;16.88;57.19
15604;BME280;7902;49.042;9.092;2023-01-01T02:39:37;99319.97;;;16.86;56.87
15604;BME280;7902;49.042;9.092;2023-01-01T02:42:06;99320.81;;;16.87;57.48
15604;BME280;7902;49.042;9.092;2023-01-01T02:44:34;99315.69;;;16.85;57.24
15604;BME280;7902;49.042;9.092;2023-01-01T02:47:12;99319.72;;;16.89;57.37
15604;BME280;7902;49.042;9.092;2023-01-01T02:49:45;99320.91;;;16.58;57.36
15604;BME280;7902;49.042;9.092;2023-01-01T02:52:38;99314.47;;;16.70;57.42
15604;BME280;7902;49.042;9.092;2023-01-01T02:55:15;99319.13;;;16.86;57.73
15604;BME280;7902;49.042;9.092;2023-01-01T02:57:51;99309.97;;;16.80;57.59
15604;BME280;7902;49.042;9.092;2023-01-01T03:00:21;99313.59;;;16.79;57.61
15604;BME280;7902;49.042;9.092;2023-01-01T03:03:17;99311.97;;;16.68;57.83
15604;BME280;7902;49.042;9.092;2023-01-01T03:06:25;99314.16;;;16.73;57.45
15604;BME280;7902;49.042;9.092;2023-01-01T03:11:47;99313.19;;;16.74;57.48
15604;BME280;7902;49.042;9.092;2023-01-01T03:14:40;99326.47;;;16.74;57.50
15604;BME280;7902;49.042;9.092;2023-01-01T03:19:42;99330.34;;;16.80;57.68
15604;BME280;7902;49.042;9.092;2023-01-01T03:22:12;99333.31;;;16.67;57.57
15604;BME280;7902;49.042;9.092;2023-01-01T03:27:22;99339.31;;;16.69;57.13
15604;BME280;7902;49.042;9.092;2023-01-01T03:29:52;99353.94;;;16.73;56.71
15604;BME280;7902;49.042;9.092;2023-01-01T03:32:25;99342.25;;;16.66;57.57
15604;BME280;7902;49.042;9.092;2023-01-01T03:35:13;99348.84;;;16.62;57.04
15604;BME280;7902;49.042;9.092;2023-01-01T03:37:41;99348.25;;;16.68;57.04
15604;BME280;7902;49.042;9.092;2023-01-01T03:40:11;99348.25;;;16.68;57.31
15604;BME280;7902;49.042;9.092;2023-01-01T03:42:40;99356.47;;;16.75;57.02
15604;BME280;7902;49.042;9.092;2023-01-01T03:45:16;99357.03;;;16.68;57.32
15604;BME280;7902;49.042;9.092;2023-01-01T03:47:44;99348.78;;;16.72;57.22
15604;BME280;7902;49.042;9.092;2023-01-01T03:50:12;99355.63;;;16.74;56.93
15604;BME280;7902;49.042;9.092;2023-01-01T03:55:22;99350.06;;;16.58;57.76
15604;BME280;7902;49.042;9.092;2023-01-01T03:58:08;99344.63;;;16.59;57.53
15604;BME280;7902;49.042;9.092;2023-01-01T04:00:44;99347.41;;;16.58;57.63
15604;BME280;7902;49.042;9.092;2023-01-01T04:03:17;99347.13;;;16.51;57.64
15604;BME280;7902;49.042;9.092;2023-01-01T04:05:45;99348.97;;;16.60;56.96
15604;BME280;7902;49.042;9.092;2023-01-01T04:08:11;99354.41;;;16.59;57.54
15604;BME280;7902;49.042;9.092;2023-01-01T04:10:44;99346.97;;;16.53;57.53
15604;BME280;7902;49.042;9.092;2023-01-01T04:13:11;99348.00;;;16.61;57.33
15604;BME280;7902;49.042;9.092;2023-01-01T04:15:38;99349.09;;;16.59;57.01
15604;BME280;7902;49.042;9.092;2023-01-01T04:18:04;99349.91;;;16.69;56.89
15604;BME280;7902;49.042;9.092;2023-01-01T04:20:30;99357.03;;;16.68;56.67
15604;BME280;7902;49.042;9.092;2023-01-01T04:22:57;99358.56;;;16.71;56.64
15604;BME280;7902;49.042;9.092;2023-01-01T04:25:24;99352.97;;;16.74;56.77
15604;BME280;7902;49.042;9.092;2023-01-01T04:27:50;99351.44;;;16.72;57.04
15604;BME280;7902;49.042;9.092;2023-01-01T04:30:16;99354.66;;;16.56;56.80
15604;BME280;7902;49.042;9.092;2023-01-01T04:32:42;99343.78;;;16.59;56.72
15604;BME280;7902;49.042;9.092;2023-01-01T04:35:09;99347.41;;;16.58;56.53
15604;BME280;7902;49.042;9.092;2023-01-01T04:37:38;99345.34;;;16.52;56.58
15604;BME280;7902;49.042;9.092;2023-01-01T04:40:05;99353.28;;;16.52;56.86
15604;BME280;7902;49.042;9.092;2023-01-01T04:42:31;99361.38;;;16.41;57.45
15604;BME280;7902;49.042;9.092;2023-01-01T04:44:57;99341.84;;;16.42;56.44
15604;BME280;7902;49.042;9.092;2023-01-01T04:47:23;99347.28;;;16.40;56.45
15604;BME280;7902;49.042;9.092;2023-01-01T04:49:52;99344.38;;;16.34;56.79
15604;BME280;7902;49.042;9.092;2023-01-01T04:52:18;99347.84;;;16.34;57.18
15604;BME280;7902;49.042;9.092;2023-01-01T04:54:44;99354.00;;;16.35;57.08
15604;BME280;7902;49.042;9.092;2023-01-01T04:57:10;99353.00;;;16.36;57.11
15604;BME280;7902;49.042;9.092;2023-01-01T04:59:35;99348.84;;;16.43;56.26
15604;BME280;7902;49.042;9.092;2023-01-01T05:02:01;99354.78;;;16.54;56.66
15604;BME280;7902;49.042;9.092;2023-01-01T05:04:28;99356.91;;;16.60;56.37
15604;BME280;7902;49.042;9.092;2023-01-01T05:06:53;99356.78;;;16.62;55.85
15604;BME280;7902;49.042;9.092;2023-01-01T05:09:20;99361.91;;;16.54;56.42
15604;BME280;7902;49.042;9.092;2023-01-01T05:11:45;99364.03;;;16.50;56.59
15604;BME280;7902;49.042;9.092;2023-01-01T05:14:11;99360.94;;;16.55;56.31
15604;BME280;7902;49.042;9.092;2023-01-01T05:16:38;99359.13;;;16.55;56.05
15604;BME280;7902;49.042;9.092;2023-01-01T05:19:05;99365.28;;;16.56;56.69
15604;BME280;7902;49.042;9.092;2023-01-01T05:21:33;99367.66;;;16.59;56.28
15604;BME280;7902;49.042;9.092;2023-01-01T05:24:02;99372.25;;;16.57;56.34
15604;BME280;7902;49.042;9.092;2023-01-01T05:26:32;99382.16;;;16.55;56.34
15604;BME280;7902;49.042;9.092;2023-01-01T05:28:59;99380.75;;;16.51;57.04
15604;BME280;7902;49.042;9.092;2023-01-01T05:31:27;99383.00;;;16.55;55.84
15604;BME280;7902;49.042;9.092;2023-01-01T05:33:54;99370.41;;;16.57;56.16
15604;BME280;7902;49.042;9.092;2023-01-01T05:36:22;99384.69;;;16.47;56.56
15604;BME280;7902;49.042;9.092;2023-01-01T05:38:49;99386.91;;;16.51;56.35
15604;BME280;7902;49.042;9.092;2023-01-01T05:41:17;99386.91;;;16.51;56.67
15604;BME280;7902;49.042;9.092;2023-01-01T05:43:43;99384.09;;;16.43;56.09
15604;BME280;7902;49.042;9.092;2023-01-01T05:46:18;99383.56;;;16.40;56.36
15604;BME280;7902;49.042;9.092;2023-01-01T05:48:45;99381.19;;;16.37;56.55
15604;BME280;7902;49.042;9.092;2023-01-01T05:51:14;99379.53;;;16.36;56.78
15604;BME280;7902;49.042;9.092;2023-01-01T05:53:40;99382.88;;;16.38;56.42
15604;BME280;7902;49.042;9.092;2023-01-01T05:56:07;99385.94;;;16.43;56.72
15604;BME280;7902;49.042;9.092;2023-01-01T05:58:34;99387.59;;;16.34;56.73
15604;BME280;7902;49.042;9.092;2023-01-01T06:01:15;99390.41;;;16.33;56.59
15604;BME280;7902;49.042;9.092;2023-01-01T06:03:43;99388.00;;;16.49;56.51
15604;BME280;7902;49.042;9.092;2023-01-01T06:06:11;99389.00;;;16.48;56.64
15604;BME280;7902;49.042;9.092;2023-01-01T06:08:38;99393.06;;;16.42;56.58
15604;BME280;7902;49.042;9.092;2023-01-01T06:11:06;99391.25;;;16.43;56.84
15604;BME280;7902;49.042;9.092;2023-01-01T06:13:32;99386.22;;;16.40;56.94
15604;BME280;7902;49.042;9.092;2023-01-01T06:15:59;99398.19;;;16.34;57.18
15604;BME280;7902;49.042;9.092;2023-01-01T06:18:29;99403.50;;;16.44;56.76
15604;BME280;7902;49.042;9.092;2023-01-01T06:21:03;99398.34;;;16.42;56.87
15604;BME280;7902;49.042;9.092;2023-01-01T06:23:29;99403.91;;;16.39;56.31
15604;BME280;7902;49.042;9.092;2023-01-01T06:25:55;99397.34;;;16.43;56.51
15604;BME280;7902;49.042;9.092;2023-01-01T06:28:21;99401.84;;;16.43;56.49
15604;BME280;7902;49.042;9.092;2023-01-01T06:30:47;99403.66;;;16.52;56.23
15604;BME280;7902;49.042;9.092;2023-01-01T06:33:12;99405.19;;;16.45;57.25
15604;BME280;7902;49.042;9.092;2023-01-01T06:35:38;99414.81;;;16.46;56.67
15604;BME280;7902;49.042;9.092;2023-01-01T06:38:04;99415.78;;;16.45;56.34
15604;BME280;7902;49.042;9.092;2023-01-01T06:40:30;99406.00;;;16.55;56.53
15604;BME280;7902;49.042;9.092;2023-01-01T06:42:56;99413.97;;;16.55;57.07
15604;BME280;7902;49.042;9.092;2023-01-01T06:45:22;99407.94;;;16.53;57.18
15604;BME280;7902;49.042;9.092;2023-01-01T06:47:48;99408.25;;;16.50;56.28
15604;BME280;7902;49.042;9.092;2023-01-01T06:50:14;99406.31;;;16.52;55.97
15604;BME280;7902;49.042;9.092;2023-01-01T06:52:40;99409.38;;;16.47;56.25
15604;BME280;7902;49.042;9.092;2023-01-01T06:55:06;99408.25;;;16.50;56.89
15604;BME280;7902;49.042;9.092;2023-01-01T06:57:32;99409.63;;;16.44;56.59
15604;BME280;7902;49.042;9.092;2023-01-01T06:59:59;99413.25;;;16.43;56.54
15604;BME280;7902;49.042;9.092;2023-01-01T07:02:25;99424.69;;;16.53;55.85
15604;BME280;7902;49.042;9.092;2023-01-01T07:04:50;99417.44;;;16.55;56.75
15604;BME280;7902;49.042;9.092;2023-01-01T07:07:16;99424.03;;;16.61;56.21
15604;BME280;7902;49.042;9.092;2023-01-01T07:09:42;99419.00;;;16.58;56.27
15604;BME280;7902;49.042;9.092;2023-01-01T07:12:08;99413.97;;;16.55;56.87
15604;BME280;7902;49.042;9.092;2023-01-01T07:14:34;99424.69;;;16.53;56.66
15604;BME280;7902;49.042;9.092;2023-01-01T07:17:00;99428.78;;;16.48;57.02
15604;BME280;7902;49.042;9.092;2023-01-01T07:19:26;99434.47;;;16.53;56.91
15604;BME280;7902;49.042;9.092;2023-01-01T07:21:53;99439.25;;;16.59;56.42
15604;BME280;7902;49.042;9.092;2023-01-01T07:24:20;99452.22;;;16.62;56.87
15604;BME280;7902;49.042;9.092;2023-01-01T07:26:46;99451.06;;;16.55;57.08
15604;BME280;7902;49.042;9.092;2023-01-01T07:29:12;99448.97;;;16.49;56.35
15604;BME280;7902;49.042;9.092;2023-01-01T07:31:40;99447.59;;;16.54;56.62
15604;BME280;7902;49.042;9.092;2023-01-01T07:34:11;99447.16;;;16.49;56.39
15604;BME280;7902;49.042;9.092;2023-01-01T07:36:38;99446.19;;;16.50;56.98
15604;BME280;7902;49.042;9.092;2023-01-01T07:39:04;99457.63;;;16.51;56.70
15604;BME280;7902;49.042;9.092;2023-01-01T07:41:29;99467.41;;;16.41;57.49
15604;BME280;7902;49.042;9.092;2023-01-01T07:43:55;99467.94;;;16.35;57.40
15604;BME280;7902;49.042;9.092;2023-01-01T07:46:21;99475.34;;;16.41;57.46
15604;BME280;7902;49.042;9.092;2023-01-01T07:48:47;99485.81;;;16.52;56.59
15604;BME280;7902;49.042;9.092;2023-01-01T07:51:13;99489.03;;;16.46;56.46
15604;BME280;7902;49.042;9.092;2023-01-01T07:53:39;99491.13;;;16.42;56.59
15604;BME280;7902;49.042;9.092;2023-01-01T07:56:05;99486.78;;;16.41;56.62
15604;BME280;7902;49.042;9.092;2023-01-01T07:58:31;99503.38;;;16.43;56.73
15604;BME280;7902;49.042;9.092;2023-01-01T08:00:57;99509.41;;;16.45;56.91
15604;BME280;7902;49.042;9.092;2023-01-01T08:03:23;99511.78;;;16.58;56.31
15604;BME280;7902;49.042;9.092;2023-01-01T08:05:49;99508.69;;;16.53;56.07
15604;BME280;7902;49.042;9.092;2023-01-01T08:08:15;99509.09;;;16.48;56.40
15604;BME280;7902;49.042;9.092;2023-01-01T08:10:41;99506.03;;;16.43;56.97
15604;BME280;7902;49.042;9.092;2023-01-01T08:13:07;99503.69;;;16.50;56.68
15604;BME280;7902;49.042;9.092;2023-01-01T08:15:34;99507.88;;;16.43;56.57
15604;BME280;7902;49.042;9.092;2023-01-01T08:18:02;99508.28;;;16.48;56.39
15604;BME280;7902;49.042;9.092;2023-01-01T08:20:30;99511.75;;;16.48;57.02
15604;BME280;7902;49.042;9.092;2023-01-01T08:22:56;99513.44;;;16.49;56.31
15604;BME280;7902;49.042;9.092;2023-01-01T08:25:22;99507.72;;;16.44;56.89
15604;BME280;7902;49.042;9.092;2023-01-01T08:27:48;99503.78;;;16.39;56.69
15604;BME280;7902;49.042;9.092;2023-01-01T08:30:14;99511.50;;;16.42;57.16
15604;BME280;7902;49.042;9.092;2023-01-01T08:32:41;99520.53;;;16.49;57.13
15604;BME280;7902;49.042;9.092;2023-01-01T08:35:07;99516.63;;;16.53;56.78
15604;BME280;7902;49.042;9.092;2023-01-01T08:37:33;99518.59;;;16.41;56.73
15604;BME280;7902;49.042;9.092;2023-01-01T08:39:59;99524.88;;;16.40;56.64
15604;BME280;7902;49.042;9.092;2023-01-01T08:42:25;99525.72;;;16.50;56.78
15604;BME280;7902;49.042;9.092;2023-01-01T08:44:51;99527.94;;;16.45;56.98
15604;BME280;7902;49.042;9.092;2023-01-01T08:47:26;99535.34;;;16.51;57.09
15604;BME280;7902;49.042;9.092;2023-01-01T08:49:52;99540.69;;;16.61;57.22
15604;BME280;7902;49.042;9.092;2023-01-01T08:52:19;99536.50;;;16.58;56.97
15604;BME280;7902;49.042;9.092;2023-01-01T08:54:45;99540.09;;;16.48;56.65
15604;BME280;7902;49.042;9.092;2023-01-01T08:57:11;99533.25;;;16.45;56.54
15604;BME280;7902;49.042;9.092;2023-01-01T08:59:37;99535.19;;;16.43;57.45
15604;BME280;7902;49.042;9.092;2023-01-01T09:02:03;99537.84;;;16.53;56.69
15604;BME280;7902;49.042;9.092;2023-01-01T09:04:29;99538.06;;;16.61;56.40
15604;BME280;7902;49.042;9.092;2023-01-01T09:06:55;99534.50;;;16.51;56.41
15604;BME280;7902;49.042;9.092;2023-01-01T09:09:21;99542.75;;;16.48;57.24
15604;BME280;7902;49.042;9.092;2023-01-01T09:11:54;99542.09;;;16.65;56.79
15604;BME280;7902;49.042;9.092;2023-01-01T09:14:21;99543.78;;;16.66;56.51
15604;BME280;7902;49.042;9.092;2023-01-01T09:16:47;99543.03;;;16.54;57.19
15604;BME280;7902;49.042;9.092;2023-01-01T09:19:13;99543.59;;;16.58;57.67
15604;BME280;7902;49.042;9.092;2023-01-01T09:21:39;99535.53;;;16.59;56.86
15604;BME280;7902;49.042;9.092;2023-01-01T09:24:05;99543.88;;;16.55;56.97
15604;BME280;7902;49.042;9.092;2023-01-01T09:26:31;99539.84;;;16.60;56.66
15604;BME280;7902;49.042;9.092;2023-01-01T09:28:57;99540.69;;;16.61;57.51
15604;BME280;7902;49.042;9.092;2023-01-01T09:31:23;99538.13;;;16.50;57.28
15604;BME280;7902;49.042;9.092;2023-01-01T09:33:50;99539.81;;;16.51;57.77
15604;BME280;7902;49.042;9.092;2023-01-01T09:38:48;99555.91;;;16.59;57.74
15604;BME280;7902;49.042;9.092;2023-01-01T09:47:03;99561.50;;;16.65;57.44
15604;BME280;7902;49.042;9.092;2023-01-01T09:49:37;99565.38;;;16.52;58.00
15604;BME280;7902;49.042;9.092;2023-01-01T09:52:04;99563.97;;;16.48;57.67
15604;BME280;7902;49.042;9.092;2023-01-01T09:54:36;99567.91;;;16.63;57.88
15604;BME280;7902;49.042;9.092;2023-01-01T09:57:06;99573.75;;;16.57;58.04
15604;BME280;7902;49.042;9.092;2023-01-01T09:59:35;99573.75;;;16.57;57.95
15604;BME280;7902;49.042;9.092;2023-01-01T10:07:44;99562.06;;;16.69;57.57
15604;BME280;7902;49.042;9.092;2023-01-01T10:13:14;99549.63;;;16.60;57.98
15604;BME280;7902;49.042;9.092;2023-01-01T10:15:55;99556.19;;;16.85;57.86
15604;BME280;7902;49.042;9.092;2023-01-01T10:18:26;99543.91;;;16.74;57.52
15604;BME280;7902;49.042;9.092;2023-01-01T10:21:00;99551.44;;;16.69;58.14
15604;BME280;7902;49.042;9.092;2023-01-01T10:23:33;99561.22;;;16.88;57.92
15604;BME280;7902;49.042;9.092;2023-01-01T10:26:07;99551.44;;;16.69;58.33
15604;BME280;7902;49.042;9.092;2023-01-01T10:28:49;99560.78;;;16.83;57.80
15604;BME280;7902;49.042;9.092;2023-01-01T10:31:26;99568.06;;;16.81;58.03
15604;BME280;7902;49.042;9.092;2023-01-01T10:33:54;99556.03;;;16.86;57.74
15604;BME280;7902;49.042;9.092;2023-01-01T10:36:20;99557.88;;;16.76;57.95
15604;BME280;7902;49.042;9.092;2023-01-01T10:38:47;99558.97;;;16.74;57.88
15604;BME280;7902;49.042;9.092;2023-01-01T10:41:14;99564.00;;;16.86;58.34
15604;BME280;7902;49.042;9.092;2023-01-01T10:43:40;99560.38;;;16.87;58.06
15604;BME280;7902;49.042;9.092;2023-01-01T10:46:11;99551.44;;;16.88;57.84
15604;BME280;7902;49.042;9.092;2023-01-01T10:48:37;99567.66;;;16.95;57.86
15604;BME280;7902;49.042;9.092;2023-01-01T10:51:13;99560.09;;;16.90;57.86
15604;BME280;7902;49.042;9.092;2023-01-01T10:53:50;99564.16;;;17.04;57.69
15604;BME280;7902;49.042;9.092;2023-01-01T10:56:18;99562.31;;;17.04;57.88
15604;BME280;7902;49.042;9.092;2023-01-01T10:58:46;99555.63;;;17.00;58.10
15604;BME280;7902;49.042;9.092;2023-01-01T11:01:32;99549.19;;;17.13;57.43
15604;BME280;7902;49.042;9.092;2023-01-01T11:11:59;99534.97;;;17.04;57.74
15604;BME280;7902;49.042;9.092;2023-01-01T11:14:28;99527.97;;;17.03;58.04
15604;BME280;7902;49.042;9.092;2023-01-01T11:16:57;99526.19;;;16.84;58.51
15604;BME280;7902;49.042;9.092;2023-01-01T11:19:29;99517.81;;;16.89;58.64
15604;BME280;7902;49.042;9.092;2023-01-01T11:21:56;99518.22;;;17.03;58.39
15604;BME280;7902;49.042;9.092;2023-01-01T11:24:25;99516.94;;;17.07;58.31
15604;BME280;7902;49.042;9.092;2023-01-01T11:26:52;99520.44;;;17.08;58.12
15604;BME280;7902;49.042;9.092;2023-01-01T11:29:26;99519.59;;;17.17;58.00
15604;BME280;7902;49.042;9.092;2023-01-01T11:31:52;99502.00;;;17.06;58.04
15604;BME280;7902;49.042;9.092;2023-01-01T11:36:50;99502.94;;;17.25;58.06
15604;BME280;7902;49.042;9.092;2023-01-01T11:39:22;99496.75;;;17.34;57.74
15604;BME280;7902;49.042;9.092;2023-01-01T11:41:55;99489.09;;;17.31;58.09
15604;BME280;7902;49.042;9.092;2023-01-01T11:44:34;99495.78;;;17.35;57.92
15604;BME280;7902;49.042;9.092;2023-01-01T11:47:02;99496.78;;;17.24;57.98
15604;BME280;7902;49.042;9.092;2023-01-01T11:49:29;99492.59;;;17.31;58.10
15604;BME280;7902;49.042;9.092;2023-01-01T11:51:57;99497.63;;;17.25;57.51
15604;BME280;7902;49.042;9.092;2023-01-01T11:54:29;99499.16;;;17.37;57.82
15604;BME280;7902;49.042;9.092;2023-01-01T11:57:06;99498.91;;;17.21;58.20
15604;BME280;7902;49.042;9.092;2023-01-01T11:59:48;99484.06;;;17.37;57.58
15604;BME280;7902;49.042;9.092;2023-01-01T12:02:27;99475.09;;;17.38;57.84
15604;BME280;7902;49.042;9.092;2023-01-01T12:07:41;99477.91;;;17.37;58.27
15604;BME280;7902;49.042;9.092;2023-01-01T12:10:18;99471.03;;;17.44;58.15
15604;BME280;7902;49.042;9.092;2023-01-01T12:13:05;99455.63;;;17.47;57.93
15604;BME280;7902;49.042;9.092;2023-01-01T12:15:38;99460.50;;;17.52;57.97
15604;BME280;7902;49.042;9.092;2023-01-01T12:18:28;99458.53;;;17.54;57.72
15604;BME280;7902;49.042;9.092;2023-01-01T12:21:01;99461.06;;;17.55;57.84
15604;BME280;7902;49.042;9.092;2023-01-01T12:23:30;99454.91;;;17.55;57.92
15604;BME280;7902;49.042;9.092;2023-01-01T12:26:10;99454.75;;;17.56;58.22
15604;BME280;7902;49.042;9.092;2023-01-01T12:29:27;99447.38;;;17.60;57.91
15604;BME280;7902;49.042;9.092;2023-01-01T12:32:21;99451.00;;;17.59;58.39
15604;BME280;7902;49.042;9.092;2023-01-01T12:35:00;99451.13;;;17.58;57.74
15604;BME280;7902;49.042;9.092;2023-01-01T12:40:26;99444.50;;;17.71;58.07
15604;BME280;7902;49.042;9.092;2023-01-01T12:59:25;99439.16;;;17.81;57.73
15604;BME280;7902;49.042;9.092;2023-01-01T13:01:56;99440.03;;;17.72;57.88
15604;BME280;7902;49.042;9.092;2023-01-01T13:04:23;99427.59;;;17.72;57.89
15604;BME280;7902;49.042;9.092;2023-01-01T13:06:49;99431.63;;;17.76;58.31
15604;BME280;7902;49.042;9.092;2023-01-01T13:09:22;99431.47;;;17.78;58.03
15604;BME280;7902;49.042;9.092;2023-01-01T13:11:54;99433.09;;;17.88;57.93
15604;BME280;7902;49.042;9.092;2023-01-01T13:14:21;99432.72;;;17.83;57.87
15604;BME280;7902;49.042;9.092;2023-01-01T13:16:50;99426.03;;;17.79;58.04
15604;BME280;7902;49.042;9.092;2023-01-01T13:19:29;99423.19;;;17.81;58.25
15604;BME280;7902;49.042;9.092;2023-01-01T13:21:56;99429.22;;;17.83;58.27
15604;BME280;7902;49.042;9.092;2023-01-01T13:24:25;99420.50;;;17.90;57.80
15604;BME280;7902;49.042;9.092;2023-01-01T13:26:52;99421.47;;;17.89;58.08
15604;BME280;7902;49.042;9.092;2023-01-01T13:34:36;99412.34;;;17.74;56.73
15604;BME280;7902;49.042;9.092;2023-01-01T13:45:30;99401.00;;;17.99;57.85
15604;BME280;7902;49.042;9.092;2023-01-01T13:48:31;99409.66;;;18.02;57.97
15604;BME280;7902;49.042;9.092;2023-01-01T13:54:05;99398.72;;;18.05;58.15
15604;BME280;7902;49.042;9.092;2023-01-01T13:56:46;99404.03;;;18.05;58.65
15604;BME280;7902;49.042;9.092;2023-01-01T14:04:39;99418.53;;;18.10;58.40
15604;BME280;7902;49.042;9.092;2023-01-01T14:09:45;99419.69;;;18.08;58.60
15604;BME280;7902;49.042;9.092;2023-01-01T14:12:19;99422.03;;;18.11;58.17
15604;BME280;7902;49.042;9.092;2023-01-01T14:14:45;99419.06;;;18.14;58.53
15604;BME280;7902;49.042;9.092;2023-01-01T14:17:14;99418.53;;;18.10;58.54
15604;BME280;7902;49.042;9.092;2023-01-01T14:19:41;99426.38;;;18.12;58.28
15604;BME280;7902;49.042;9.092;2023-01-01T14:22:09;99430.53;;;18.14;58.31
15604;BME280;7902;49.042;9.092;2023-01-01T14:24:42;99430.00;;;18.11;58.77
15604;BME280;7902;49.042;9.092;2023-01-01T14:27:08;99423.03;;;18.10;58.66
15604;BME280;7902;49.042;9.092;2023-01-01T14:29:38;99425.69;;;18.10;58.34
15604;BME280;7902;49.042;9.092;2023-01-01T14:32:22;99433.19;;;18.14;58.63
15604;BME280;7902;49.042;9.092;2023-01-01T14:34:58;99429.03;;;18.12;58.92
15604;BME280;7902;49.042;9.092;2023-01-01T14:37:25;99431.38;;;18.15;58.84
15604;BME280;7902;49.042;9.092;2023-01-01T14:40:11;99426.13;;;18.05;58.70
15604;BME280;7902;49.042;9.092;2023-01-01T14:42:39;99424.84;;;18.09;59.09
15604;BME280;7902;49.042;9.092;2023-01-01T14:45:13;99416.03;;;18.09;58.83
15604;BME280;7902;49.042;9.092;2023-01-01T14:47:39;99420.22;;;18.11;59.20
15604;BME280;7902;49.042;9.092;2023-01-01T14:52:34;99416.88;;;18.09;58.88
15604;BME280;7902;49.042;9.092;2023-01-01T14:55:02;99417.63;;;18.02;59.40
15604;BME280;7902;49.042;9.092;2023-01-01T14:57:32;99411.16;;;18.04;59.34